Fire Weather Observation
Issued by NWS Grand Junction, CO

Home | Current Version | Previous Version | Graphics & Text | Print | Product List | Glossary On
Versions: 1 2 3 4 5 6 7 8 9 10 11 12 13 14 15 16 17 18 19 20 21 22 23 24 25 26 27 28 29 30 31 32 33 34 35
000
SHUS65 KGJT 222014
FWOGJT

DAILY FIRE WEATHER OBSERVATION
NATIONAL WEATHER SERVICE GRAND JUNCTION CO
212 PM MDT FRI APR 22 2016

STATE OF THE WEATHER (W)               1
DRY BULB TEMPERATURE                   76   DEGREES FAHRENHEIT
RELATIVE HUMIDITY (RH)                 16   PERCENT
LIGHTNING ACTIVITY LEVEL
  (LAL - MIDNIGHT TO 2 PM)             1
WIND DIRECTION                         225  DEGREES (C IF CALM)
WIND SPEED                             9    MPH
MAX TEMP (2 PM - 2 PM)                 76   DEGREES FAHRENHEIT
MIN TEMP (2 PM - 2 PM)                 46   DEGREES FAHRENHEIT
MAX RH (2 PM - 2 PM)                   53   PERCENT
MIN RH (2 PM - 2 PM)                   13   PERCENT
PCPN DURATION                          0.0  HOURS
PCPN AMT (2 PM - 2 PM)                 0.0  INCHES
LAL (2 PM - 2 PM)                      1

$$

METAR KGJT 221953Z 24008G25KT 10SM FEW120 24/M03 A2995 RMK AO2
      PK WND 20034/1858 SLP088 T02441033



USA.gov is the U.S. government's official web portal to all federal, state and local government web resources and services.